Time;durP1;ratioP1;P1;durP2;ratioP2;P2;SDS_P1;SDS_P2;PMS_P1;PMS_P2;Temp;Humidity;BMP_temperature;BMP_pressure;BME280_temperature;BME280_humidity;BME280_pressure;Samples;Min_cycle;Max_cycle;Signal;HPM_P1;HPM_P2
2023/03/04 00:00:45;;;;;;;17.33;5.53;;;4.30;99.90;;;-144.05;59.12;56963.53;5078559;28;20032;-79
2023/03/04 00:03:13;;;;;;;13.32;5.65;;;4.40;99.90;;;-144.05;58.97;56931.66;5079883;28;20443;-78
2023/03/04 00:05:39;;;;;;;17.15;5.70;;;4.30;99.90;;;-144.05;58.73;56948.66;5080062;28;20099;-79
2023/03/04 00:08:05;;;;;;;14.52;5.28;;;4.30;99.90;;;-144.05;58.65;56980.53;5078963;28;20055;-80
2023/03/04 00:10:31;;;;;;;18.15;5.13;;;4.30;99.90;;;-144.05;59.14;56952.91;5081374;28;20467;-78
2023/03/04 00:12:57;;;;;;;15.85;6.25;;;4.30;99.90;;;-144.05;59.19;56935.91;5097714;28;20537;-77
2023/03/04 00:15:23;;;;;;;19.48;5.70;;;4.30;99.90;;;-144.05;59.34;56952.91;5078306;28;20420;-77
2023/03/04 00:17:49;;;;;;;13.15;5.03;;;4.20;99.90;;;-144.05;59.62;56940.16;5084661;28;20039;-81
2023/03/04 00:20:14;;;;;;;17.80;5.78;;;4.20;99.90;;;-144.05;60.13;56963.53;5113008;28;20012;-81
2023/03/04 00:22:40;;;;;;;19.38;5.80;;;4.20;99.90;;;-144.05;60.32;56950.78;5100413;28;20028;-81
2023/03/04 00:25:06;;;;;;;18.42;5.55;;;4.10;99.90;;;-144.05;59.96;56967.78;5081850;28;20054;-82
2023/03/04 00:27:32;;;;;;;17.75;5.78;;;4.20;99.90;;;-144.05;59.95;56929.53;5099482;28;20027;-78
2023/03/04 00:29:58;;;;;;;13.93;5.53;;;4.20;99.90;;;-144.05;59.62;56969.91;5098325;28;20487;-78
2023/03/04 00:32:24;;;;;;;22.30;5.40;;;4.20;99.90;;;-144.05;59.71;56963.53;5098774;28;20035;-79
2023/03/04 00:34:50;;;;;;;23.83;5.20;;;4.20;99.90;;;-144.05;59.54;56978.41;5080196;28;20036;-79
2023/03/04 00:37:15;;;;;;;17.65;4.53;;;4.20;99.90;;;-144.05;59.15;56959.28;5098330;28;20052;-81
2023/03/04 00:39:41;;;;;;;14.32;4.15;;;4.30;99.90;;;-144.05;59.25;56931.66;5078950;28;20059;-79
2023/03/04 00:42:07;;;;;;;20.55;6.00;;;4.30;99.90;;;-144.05;59.59;56959.28;5097039;28;20024;-79
2023/03/04 00:44:33;;;;;;;19.80;5.07;;;4.30;99.90;;;-144.05;59.70;56952.91;5098755;28;20054;-80
2023/03/04 00:46:59;;;;;;;18.33;5.32;;;4.20;99.90;;;-144.05;60.00;56967.78;5080509;28;20051;-80
2023/03/04 00:49:24;;;;;;;20.33;4.43;;;4.20;99.90;;;-144.05;60.21;56961.41;5077898;28;20047;-79
2023/03/04 00:51:50;;;;;;;20.45;6.38;;;4.20;99.90;;;-144.05;59.89;56955.03;5095752;28;20046;-79
2023/03/04 00:54:16;;;;;;;26.30;5.35;;;4.20;99.90;;;-144.05;59.92;56961.41;5079033;28;20502;-79
2023/03/04 00:56:42;;;;;;;12.85;4.15;;;4.20;99.90;;;-144.05;59.83;56963.53;5078520;28;20032;-78
2023/03/04 00:59:08;;;;;;;22.33;4.35;;;4.30;99.90;;;-144.05;59.63;56974.16;5097021;28;20020;-78
2023/03/04 01:01:34;;;;;;;14.10;4.65;;;4.30;99.90;;;-144.05;59.85;56950.78;5097086;28;20032;-79
2023/03/04 01:04:00;;;;;;;21.88;4.53;;;4.30;99.90;;;-144.05;59.90;56963.53;5079044;28;20024;-78
2023/03/04 01:06:25;;;;;;;13.20;4.25;;;4.30;99.90;;;-144.05;60.00;56974.16;5097351;28;20460;-78
2023/03/04 01:08:51;;;;;;;18.80;4.30;;;4.30;99.90;;;-144.05;60.07;56967.78;5078278;28;20023;-79
2023/03/04 01:11:17;;;;;;;13.48;3.60;;;4.30;99.90;;;-144.05;60.16;56961.41;5096193;28;20020;-79
2023/03/04 01:13:43;;;;;;;14.25;4.30;;;4.20;99.90;;;-144.05;60.35;56955.03;5096450;28;20055;-81
2023/03/04 01:16:09;;;;;;;16.10;4.50;;;4.20;99.90;;;-144.05;60.41;56950.78;5096281;28;20036;-79
2023/03/04 01:18:36;;;;;;;17.20;4.47;;;4.20;99.90;;;-144.05;60.42;56942.28;5093958;28;20332;-79
2023/03/04 01:21:02;;;;;;;18.45;3.95;;;4.20;99.90;;;-144.05;59.69;56969.91;5076120;28;20024;-78
2023/03/04 01:23:28;;;;;;;15.57;3.55;;;4.30;99.90;;;-144.05;59.29;56969.91;5094613;28;20501;-79
2023/03/04 01:25:53;;;;;;;15.05;4.38;;;4.40;99.90;;;-144.05;59.53;56963.53;5094372;28;20032;-79
2023/03/04 01:28:19;;;;;;;16.98;3.67;;;4.30;99.90;;;-144.05;59.54;56952.91;5075266;28;20047;-79
2023/03/04 01:30:45;;;;;;;19.00;3.78;;;4.40;99.90;;;-144.05;59.50;56946.53;5073954;28;20030;-78
2023/03/04 01:33:11;;;;;;;19.90;4.10;;;4.30;99.90;;;-144.05;59.52;56963.53;5093178;28;20024;-77
2023/03/04 01:35:37;;;;;;;22.25;4.88;;;4.30;99.90;;;-144.05;59.36;56955.03;5092962;28;20107;-79
2023/03/04 01:38:03;;;;;;;20.27;3.90;;;4.30;99.90;;;-144.05;59.45;56986.91;5075292;28;20035;-79
2023/03/04 01:40:30;;;;;;;11.65;3.20;;;4.40;99.90;;;-144.05;59.54;56959.28;5096962;28;20103;-78
2023/03/04 01:42:57;;;;;;;16.73;4.20;;;4.30;99.90;;;-144.05;59.92;56963.53;5075501;28;20028;-78
2023/03/04 01:45:23;;;;;;;14.07;3.75;;;4.30;99.90;;;-144.05;59.83;56946.53;5094436;28;20028;-80
2023/03/04 01:47:51;;;;;;;20.65;4.25;;;4.40;99.90;;;-144.05;59.48;56986.91;5074562;28;20035;-78
2023/03/04 01:50:34;;;;;;;20.15;5.32;;;4.40;99.90;;;-144.05;59.51;56967.78;5074151;28;20120;-79
2023/03/04 01:53:02;;;;;;;20.33;3.90;;;4.40;99.90;;;-144.05;59.77;56982.66;5092745;28;20508;-78
2023/03/04 01:55:30;;;;;;;25.20;4.43;;;4.30;99.90;;;-144.05;59.14;56963.53;5091310;28;20028;-79
2023/03/04 01:57:56;;;;;;;16.67;3.60;;;4.30;99.90;;;-144.05;59.40;56942.28;5074265;28;20035;-79
2023/03/04 02:00:32;;;;;;;21.38;3.60;;;4.30;99.90;;;-144.05;59.93;56955.03;5093759;28;20052;-80
2023/03/04 02:03:18;;;;;;;21.27;3.65;;;4.30;99.90;;;-144.05;59.57;56959.28;5075096;28;20020;-78
2023/03/04 02:05:49;;;;;;;;;;;4.40;99.90;;;-144.05;59.60;56967.78;5091656;28;20442;-79
2023/03/04 02:08:20;;;;;;;26.77;3.95;;;4.40;99.90;;;-144.05;59.67;56963.53;5092068;28;20363;-79
2023/03/04 02:10:48;;;;;;;14.60;3.95;;;4.30;99.90;;;-144.05;59.68;56946.53;5092869;28;20038;-80
2023/03/04 02:13:15;;;;;;;16.05;4.50;;;4.30;99.90;;;-144.05;59.77;56935.91;5095442;28;20035;-78
2023/03/04 02:15:44;;;;;;;16.60;3.83;;;4.30;99.90;;;-144.05;60.19;56955.03;5092485;28;20441;-79
2023/03/04 02:18:19;;;;;;;18.25;3.55;;;4.30;99.90;;;-144.05;60.23;56961.41;5092240;28;20340;-78
2023/03/04 02:21:17;;;;;;;21.27;4.23;;;4.30;99.90;;;-144.05;60.20;56972.03;5090391;28;20024;-78
2023/03/04 02:24:17;;;;;;;23.35;4.07;;;4.30;99.90;;;-144.05;59.95;56967.78;5075574;28;20028;-80
2023/03/04 02:26:45;;;;;;;21.08;4.03;;;4.30;99.90;;;-144.05;59.93;56965.66;5093142;28;20024;-78
2023/03/04 02:29:15;;;;;;;18.02;2.85;;;4.30;99.90;;;-144.05;59.82;56952.91;5090975;28;20028;-78
2023/03/04 02:31:50;;;;;;;19.48;3.80;;;4.40;99.90;;;-144.05;59.80;56969.91;5090961;28;20368;-78
2023/03/04 02:34:24;;;;;;;15.30;3.33;;;4.30;99.90;;;-144.05;59.82;56984.78;5092376;28;20483;-79
2023/03/04 02:36:53;;;;;;;18.35;3.92;;;4.40;99.90;;;-144.05;59.62;56950.78;5092596;28;20059;-78
2023/03/04 02:39:19;;;;;;;18.27;3.20;;;4.40;99.90;;;-144.05;59.90;56978.41;5092226;28;20104;-79
2023/03/04 02:41:47;;;;;;;19.45;4.30;;;4.40;99.90;;;-144.05;60.03;56938.03;5092133;28;20028;-79
2023/03/04 02:44:28;;;;;;;19.40;3.78;;;4.40;99.90;;;-144.05;59.60;56980.53;5092735;28;20039;-78
2023/03/04 02:46:56;;;;;;;18.63;3.30;;;4.40;99.90;;;-144.05;59.50;56974.16;5094984;28;20012;-81
2023/03/04 02:49:26;;;;;;;17.08;3.17;;;4.50;99.90;;;-144.05;59.79;56948.66;5098512;28;20032;-80
2023/03/04 02:52:19;;;;;;;17.15;3.10;;;4.40;99.90;;;-144.05;59.85;56972.03;5094331;28;20488;-80
2023/03/04 02:54:45;;;;;;;15.15;2.90;;;4.40;99.90;;;-144.05;59.99;56950.78;5093465;28;20040;-78
2023/03/04 02:57:13;;;;;;;27.10;3.80;;;4.40;99.90;;;-144.05;60.09;56978.41;5094414;28;20352;-82
2023/03/04 02:59:41;;;;;;;17.85;3.70;;;4.40;99.90;;;-144.05;60.28;56957.16;5075568;28;20048;-78
2023/03/04 03:02:08;;;;;;;13.00;3.35;;;4.30;99.90;;;-144.05;60.39;56969.91;5094103;28;20547;-82
2023/03/04 03:04:38;;;;;;;19.13;4.50;;;4.30;99.90;;;-144.05;60.15;56942.28;5093289;28;20080;-78
2023/03/04 03:07:04;;;;;;;18.75;3.50;;;4.40;99.90;;;-144.05;59.88;56955.03;5093626;28;20024;-79
2023/03/04 03:09:30;;;;;;;19.45;3.97;;;4.40;99.90;;;-144.05;59.87;56946.53;5093120;28;20043;-79
2023/03/04 03:11:56;;;;;;;16.63;3.15;;;4.40;99.90;;;-144.05;60.03;56950.78;5075240;28;20032;-80
2023/03/04 03:14:21;;;;;;;15.43;3.85;;;4.30;99.90;;;-144.05;60.11;56980.53;5094993;28;20047;-78
2023/03/04 03:16:47;;;;;;;10.88;3.38;;;4.30;99.90;;;-144.05;60.01;56959.28;5076467;28;20107;-78
2023/03/04 03:19:13;;;;;;;14.23;3.70;;;4.30;99.90;;;-144.05;60.40;56980.53;5074886;28;20397;-78
2023/03/04 03:21:39;;;;;;;15.77;3.15;;;4.30;99.90;;;-144.05;60.45;56978.41;5093320;28;20051;-79
2023/03/04 03:24:05;;;;;;;16.75;3.70;;;4.30;99.90;;;-144.05;60.26;56965.66;5093320;28;20065;-80
2023/03/04 03:26:31;;;;;;;15.85;3.67;;;4.20;99.90;;;-144.05;60.48;56976.28;5092670;28;20024;-79
2023/03/04 03:28:57;;;;;;;15.45;3.20;;;4.20;99.90;;;-144.05;60.58;56948.66;5092515;28;20036;-79
2023/03/04 03:31:23;;;;;;;18.08;3.30;;;4.20;99.90;;;-144.05;60.55;56980.53;5073828;28;20039;-76
2023/03/04 03:33:49;;;;;;;15.75;4.28;;;4.20;99.90;;;-144.05;60.75;56948.66;5094583;28;20502;-78
2023/03/04 03:36:14;;;;;;;20.55;3.75;;;4.10;99.90;;;-144.05;60.92;56972.03;5078584;28;20491;-79
2023/03/04 03:38:40;;;;;;;13.90;3.08;;;4.10;99.90;;;-144.05;60.93;56963.53;5098500;28;20043;-79
2023/03/04 03:41:06;;;;;;;18.50;4.22;;;4.20;99.90;;;-144.05;60.78;56957.16;5080396;28;20077;-79
2023/03/04 03:43:32;;;;;;;22.52;3.65;;;4.20;99.90;;;-144.05;60.57;56933.78;5098315;28;20020;-79
2023/03/04 03:45:58;;;;;;;11.02;2.95;;;4.20;99.90;;;-144.05;60.25;56961.41;5079399;28;20063;-79
2023/03/04 03:48:24;;;;;;;21.08;3.92;;;4.30;99.90;;;-144.05;60.04;56967.78;5098104;28;20032;-79
2023/03/04 03:50:49;;;;;;;19.98;3.67;;;4.30;99.90;;;-144.05;59.70;56959.28;5079375;28;20027;-79
2023/03/04 03:53:15;;;;;;;13.95;3.30;;;4.40;99.90;;;-144.05;59.86;56955.03;5077472;28;20032;-76
2023/03/04 03:55:41;;;;;;;16.13;3.55;;;4.40;99.90;;;-144.05;59.65;56948.66;5097242;28;20047;-76
2023/03/04 03:58:07;;;;;;;12.77;3.63;;;4.40;99.90;;;-144.05;59.87;56952.91;5098790;28;20394;-77
2023/03/04 04:00:33;;;;;;;23.05;3.65;;;4.50;99.90;;;-144.05;59.21;56980.53;5081401;28;20119;-75
2023/03/04 04:03:01;;;;;;;20.17;3.00;;;4.50;99.90;;;-144.05;59.52;56993.25;5079504;28;20368;-77
2023/03/04 04:05:26;;;;;;;15.15;3.20;;;4.50;99.90;;;-144.05;59.40;56963.53;5096311;28;20028;-79
2023/03/04 04:07:53;;;;;;;14.43;2.90;;;4.50;99.90;;;-144.05;59.61;56963.53;5095412;28;20083;-77
2023/03/04 04:10:20;;;;;;;18.48;3.08;;;4.50;99.90;;;-144.05;59.58;56942.28;5078689;28;20040;-78
2023/03/04 04:12:46;;;;;;;10.75;2.75;;;4.40;99.90;;;-144.05;59.40;56946.53;5095376;28;20563;-76
2023/03/04 04:15:12;;;;;;;16.10;2.88;;;4.40;99.90;;;-144.05;59.63;56997.50;5076739;28;20032;-76
2023/03/04 04:17:39;;;;;;;15.55;3.50;;;4.40;99.90;;;-144.05;59.74;56972.03;5093919;28;20451;-78
2023/03/04 04:20:07;;;;;;;13.50;3.40;;;4.40;99.90;;;-144.05;59.91;56948.66;5095564;28;20035;-80
2023/03/04 04:22:33;;;;;;;16.17;3.60;;;4.40;99.90;;;-144.05;59.75;56976.28;5076917;28;20441;-79
2023/03/04 04:24:59;;;;;;;21.40;4.20;;;4.40;99.90;;;-144.05;59.66;56950.78;5095919;28;20023;-79
2023/03/04 04:27:25;;;;;;;18.02;4.97;;;4.40;99.90;;;-144.05;59.62;56942.28;5099315;28;20031;-76
2023/03/04 04:29:51;;;;;;;14.75;2.88;;;4.50;99.90;;;-144.05;59.53;56959.28;5078433;28;20039;-76
2023/03/04 04:32:17;;;;;;;9.27;2.95;;;4.50;99.90;;;-144.05;59.38;56948.66;5076781;28;20032;-77
2023/03/04 04:34:42;;;;;;;25.67;3.35;;;4.50;99.90;;;-144.05;59.21;56955.03;5095495;28;20132;-76
2023/03/04 04:37:08;;;;;;;17.92;3.47;;;4.50;99.90;;;-144.05;59.46;56961.41;5095142;28;20081;-77
2023/03/04 04:39:34;;;;;;;13.10;3.10;;;4.50;99.90;;;-144.05;60.02;56923.19;5094597;28;20048;-78
2023/03/04 04:42:00;;;;;;;11.73;2.72;;;4.40;99.90;;;-144.05;59.52;56963.53;5094408;28;20032;-76
2023/03/04 04:44:26;;;;;;;14.20;2.90;;;4.40;99.90;;;-144.05;59.95;56940.16;5094245;28;20106;-76
2023/03/04 04:46:52;;;;;;;16.63;2.60;;;4.40;99.90;;;-144.05;59.81;56948.66;5095868;28;20126;-78
2023/03/04 04:49:18;;;;;;;18.20;3.00;;;4.50;99.90;;;-144.05;59.77;56942.28;5078361;28;20043;-78
2023/03/04 04:51:44;;;;;;;17.55;3.47;;;4.50;99.90;;;-144.05;59.22;56955.03;5095234;28;20410;-80
2023/03/04 04:54:13;;;;;;;11.93;2.60;;;4.60;99.90;;;-144.05;59.53;56948.66;5097215;28;20036;-79
2023/03/04 04:56:39;;;;;;;11.75;2.72;;;4.50;99.90;;;-144.05;59.46;56929.53;5078353;28;20035;-77
2023/03/04 04:59:07;;;;;;;21.33;3.00;;;4.50;99.90;;;-144.05;59.93;56961.41;5096472;28;20104;-78
2023/03/04 05:01:35;;;;;;;18.08;3.88;;;4.50;99.90;;;-144.05;60.10;56955.03;5098737;28;20020;-77
2023/03/04 05:04:01;;;;;;;18.45;3.83;;;4.40;99.90;;;-144.05;60.26;56993.25;5097157;28;20095;-79
2023/03/04 05:06:27;;;;;;;11.55;3.10;;;4.40;99.90;;;-144.05;60.21;56959.28;5098424;28;20518;-78
2023/03/04 05:08:53;;;;;;;14.68;2.70;;;4.40;99.90;;;-144.05;60.12;56965.66;5079035;28;20024;-79
2023/03/04 05:11:20;;;;;;;9.48;3.00;;;4.40;99.90;;;-144.05;60.65;56963.53;5097396;28;20039;-77
2023/03/04 05:13:47;;;;;;;13.10;2.97;;;4.40;99.90;;;-144.05;60.32;56965.66;5109307;28;20020;-78
2023/03/04 05:16:15;;;;;;;12.55;3.38;;;4.40;99.90;;;-144.05;60.52;56967.78;5099726;28;20035;-79
2023/03/04 05:18:42;;;;;;;10.77;3.65;;;4.40;99.90;;;-144.05;60.35;56965.66;5096060;28;20024;-80
2023/03/04 05:21:09;;;;;;;9.65;2.70;;;4.40;99.90;;;-144.05;60.32;56959.28;5097037;28;20025;-76
2023/03/04 05:23:39;;;;;;;14.07;2.50;;;4.40;99.90;;;-144.05;60.38;56955.03;5096212;28;20492;-79
2023/03/04 05:26:11;;;;;;;10.27;3.30;;;4.40;99.90;;;-144.05;60.46;56955.03;5095031;28;20062;-80
2023/03/04 05:28:37;;;;;;;13.82;3.08;;;4.40;99.90;;;-144.05;60.52;56959.28;5092669;28;20062;-78
2023/03/04 05:31:03;;;;;;;12.98;2.53;;;4.40;99.90;;;-144.05;60.57;56955.03;5092892;28;20028;-78
2023/03/04 05:33:30;;;;;;;15.45;2.50;;;4.40;99.90;;;-144.05;60.62;56959.28;5091152;28;20039;-78
2023/03/04 05:35:56;;;;;;;12.88;3.00;;;4.40;99.90;;;-144.05;60.67;56989.00;5074218;28;20032;-77
2023/03/04 05:38:24;;;;;;;19.17;3.10;;;4.40;99.90;;;-144.05;60.69;56965.66;5091979;28;20036;-76
2023/03/04 05:41:02;;;;;;;13.75;2.38;;;4.40;99.90;;;-144.05;60.63;56961.41;5092305;28;20111;-80
2023/03/04 05:43:30;;;;;;;16.48;2.63;;;4.40;99.90;;;-144.05;60.80;56957.16;5093408;28;20048;-77
2023/03/04 05:45:56;;;;;;;14.23;2.35;;;4.40;99.90;;;-144.05;60.71;56948.66;5092509;28;20118;-79
2023/03/04 05:48:23;;;;;;;20.85;3.28;;;4.40;99.90;;;-144.05;60.68;56993.25;5092784;28;20032;-80
2023/03/04 05:51:00;;;;;;;16.13;3.45;;;4.40;99.90;;;-144.05;60.74;56967.78;5075239;28;20495;-79
2023/03/04 05:53:27;;;;;;;10.45;2.30;;;4.50;99.90;;;-144.05;60.55;56976.28;5093856;28;20050;-79
2023/03/04 05:55:54;;;;;;;9.38;3.00;;;4.40;99.90;;;-144.05;60.72;56974.16;5091522;28;20032;-78
2023/03/04 05:58:21;;;;;;;13.65;2.53;;;4.40;99.90;;;-144.05;61.24;56940.16;5075708;28;20039;-80
2023/03/04 06:00:47;;;;;;;12.95;2.53;;;4.40;99.90;;;-144.05;61.38;56959.28;5092275;28;20063;-79
2023/03/04 06:03:20;;;;;;;13.20;2.45;;;4.50;99.90;;;-144.05;61.10;56976.28;5075199;28;20574;-78
2023/03/04 06:05:46;;;;;;;16.13;2.88;;;4.40;99.90;;;-144.05;61.42;56980.53;5091761;28;20372;-78
2023/03/04 06:08:13;;;;;;;13.48;2.35;;;4.40;99.90;;;-144.05;61.43;56963.53;5093118;28;20173;-78
2023/03/04 06:10:40;;;;;;;20.55;2.70;;;4.40;99.90;;;-144.05;61.59;56957.16;5093542;28;20111;-79
2023/03/04 06:13:07;;;;;;;12.02;2.45;;;4.40;99.90;;;-144.05;61.45;56972.03;5074707;28;20483;-80
2023/03/04 06:15:34;;;;;;;16.10;2.60;;;4.40;99.90;;;-144.05;61.58;56969.91;5091385;28;20093;-78
2023/03/04 06:18:00;;;;;;;16.35;3.28;;;4.40;99.90;;;-144.05;61.61;56961.41;5093539;28;20028;-77
2023/03/04 06:20:26;;;;;;;15.15;2.72;;;4.40;99.90;;;-144.05;61.89;56972.03;5095371;28;20395;-80
2023/03/04 06:22:52;;;;;;;14.50;2.75;;;4.40;99.90;;;-144.05;62.09;56959.28;5095699;28;20081;-81
2023/03/04 06:25:19;;;;;;;17.27;2.90;;;4.30;99.90;;;-144.05;61.90;56955.03;5077275;28;20032;-76
2023/03/04 06:27:44;;;;;;;10.27;2.13;;;4.40;99.90;;;-144.05;61.96;56959.28;5095210;28;20051;-78
2023/03/04 06:30:11;;;;;;;13.07;2.60;;;4.40;99.90;;;-144.05;61.86;56946.53;5095830;28;20124;-78
2023/03/04 06:32:37;;;;;;;14.88;3.53;;;4.40;99.90;;;-144.05;61.57;56963.53;5104450;28;20023;-80
2023/03/04 06:35:03;;;;;;;16.48;3.03;;;4.40;99.90;;;-144.05;61.29;56935.91;5088233;28;20082;-79
2023/03/04 06:37:29;;;;;;;14.35;2.55;;;4.40;99.90;;;-144.05;61.36;56963.53;5090173;28;20027;-78
2023/03/04 06:39:55;;;;;;;15.73;2.42;;;4.50;99.90;;;-144.05;61.18;56955.03;5109025;28;20028;-80
2023/03/04 06:42:21;;;;;;;9.80;2.40;;;4.50;99.90;;;-144.05;61.26;56967.78;5093277;28;20024;-80
2023/03/04 06:44:48;;;;;;;16.35;2.10;;;4.50;99.90;;;-144.05;61.26;56957.16;5091329;28;20032;-78
2023/03/04 06:47:15;;;;;;;14.75;2.47;;;4.50;99.90;;;-144.05;61.30;56969.91;5089081;28;20030;-79
2023/03/04 06:49:41;;;;;;;19.60;4.18;;;4.50;99.90;;;-144.05;61.13;56967.78;5095822;28;20032;-81
2023/03/04 06:52:10;;;;;;;11.95;2.65;;;4.50;99.90;;;-144.05;61.35;56963.53;5097211;28;20035;-80
2023/03/04 06:54:35;;;;;;;13.77;3.17;;;4.50;99.90;;;-144.05;61.33;56967.78;5102863;28;20031;-78
2023/03/04 06:57:01;;;;;;;13.98;3.20;;;4.50;99.90;;;-144.05;61.45;56976.28;5109606;28;20036;-79
2023/03/04 06:59:27;;;;;;;13.52;3.00;;;4.50;99.90;;;-144.05;61.55;56950.78;5109304;28;20030;-80
2023/03/04 07:01:54;;;;;;;10.95;3.45;;;4.50;99.90;;;-144.05;61.89;56959.28;5084488;28;20510;-81
2023/03/04 07:04:22;;;;;;;14.18;3.08;;;4.50;99.90;;;-144.05;61.70;56955.03;5094019;28;20020;-78
2023/03/04 07:06:48;;;;;;;11.95;2.88;;;4.50;99.90;;;-144.05;61.81;56957.16;5107193;28;20039;-78
2023/03/04 07:09:14;;;;;;;12.88;3.78;;;4.60;99.90;;;-144.05;61.87;56976.28;5109154;28;20043;-79
2023/03/04 07:11:40;;;;;;;13.90;3.40;;;4.60;99.90;;;-144.05;61.88;56942.28;5111482;28;20602;-79
2023/03/04 07:14:06;;;;;;;14.50;3.67;;;4.60;99.90;;;-144.05;61.91;56961.41;5092793;28;20055;-78
2023/03/04 07:16:32;;;;;;;8.02;3.22;;;4.60;99.90;;;-144.05;61.87;56974.16;5109597;28;20027;-80
2023/03/04 07:18:58;;;;;;;16.58;2.95;;;4.60;99.90;;;-144.05;61.96;56961.41;5102219;28;20045;-78
2023/03/04 07:21:24;;;;;;;17.92;3.05;;;4.60;99.90;;;-144.05;62.00;56965.66;5099104;28;20024;-79
2023/03/04 07:23:50;;;;;;;17.90;3.00;;;4.60;99.90;;;-144.05;62.26;56950.78;5081197;28;20031;-80
2023/03/04 07:26:17;;;;;;;13.57;2.92;;;4.70;99.90;;;-144.05;62.81;56952.91;5081932;28;20028;-78
2023/03/04 07:28:43;;;;;;;13.02;2.70;;;4.70;99.90;;;-144.05;63.47;56950.78;5099894;28;20028;-77
2023/03/04 07:31:15;;;;;;;15.82;2.65;;;4.60;99.90;;;-144.05;63.95;56946.53;5099634;28;20046;-79
2023/03/04 07:33:41;;;;;;;14.95;2.80;;;4.60;99.90;;;-144.05;64.24;56959.28;5098725;28;20073;-79
2023/03/04 07:36:07;;;;;;;12.23;2.70;;;4.60;99.90;;;-144.05;64.23;56980.53;5100630;28;20024;-78
2023/03/04 07:38:33;;;;;;;9.95;2.60;;;4.60;99.90;;;-144.05;64.64;56959.28;5104479;28;20426;-77
2023/03/04 07:41:00;;;;;;;13.82;3.38;;;4.60;99.90;;;-144.05;64.32;56963.53;5112165;28;20028;-81
2023/03/04 07:43:26;;;;;;;11.00;3.35;;;4.70;99.90;;;-144.05;64.53;56950.78;5100218;28;20028;-78
2023/03/04 07:45:52;;;;;;;12.38;2.88;;;4.70;99.90;;;-144.05;64.59;56952.91;5099372;28;20091;-78
2023/03/04 07:48:17;;;;;;;16.85;3.80;;;4.80;99.90;;;-144.05;64.70;56938.03;5099759;28;20055;-78
2023/03/04 07:50:43;;;;;;;11.93;2.50;;;4.90;99.90;;;-144.05;64.77;56955.03;5099314;28;20031;-80
2023/03/04 07:53:09;;;;;;;9.55;2.80;;;5.00;99.90;;;-144.05;64.93;56946.53;5100410;28;20406;-80
2023/03/04 07:55:35;;;;;;;12.70;3.90;;;5.00;99.90;;;-144.05;65.31;56957.16;5082607;28;20040;-79
2023/03/04 07:58:02;;;;;;;15.25;2.55;;;5.00;99.90;;;-144.05;65.29;56942.28;5101100;28;20066;-76
2023/03/04 08:00:27;;;;;;;10.50;2.60;;;5.00;99.90;;;-144.05;65.65;56969.91;5082752;28;20024;-79
2023/03/04 08:02:53;;;;;;;15.10;3.42;;;5.00;99.90;;;-144.05;66.13;56965.66;5099195;28;20082;-79
2023/03/04 08:05:19;;;;;;;12.13;2.63;;;5.10;99.90;;;-144.05;65.01;56963.53;5100111;28;20028;-80
2023/03/04 08:07:45;;;;;;;13.95;2.45;;;5.20;99.90;;;-144.05;65.17;56940.16;5098894;28;20107;-78
2023/03/04 08:10:11;;;;;;;15.07;3.25;;;5.30;99.90;;;-144.05;64.48;56955.03;5079911;28;20043;-80
2023/03/04 08:12:37;;;;;;;15.05;4.70;;;5.50;99.90;;;-144.05;63.52;56955.03;5097682;28;20024;-78
2023/03/04 08:15:03;;;;;;;36.50;10.13;;;5.60;99.90;;;-144.05;63.16;56957.16;5097594;28;20036;-77
2023/03/04 08:17:29;;;;;;;17.25;4.78;;;5.90;99.90;;;-144.05;61.75;56921.06;5097937;28;20135;-77
2023/03/04 08:19:55;;;;;;;14.50;2.92;;;6.10;99.90;;;-144.05;61.09;56944.41;5096441;28;20146;-76
2023/03/04 08:22:21;;;;;;;12.32;3.22;;;6.50;99.90;;;-144.05;59.84;56946.53;5097928;28;20059;-78
2023/03/04 08:24:47;;;;;;;6.95;3.10;;;6.60;99.90;;;-144.05;60.14;56931.66;5097912;28;20047;-79
2023/03/04 08:27:13;;;;;;;11.43;2.65;;;6.60;99.90;;;-144.05;59.19;56931.66;5097369;28;20039;-76
2023/03/04 08:29:39;;;;;;;8.93;2.67;;;6.60;99.90;;;-144.05;58.83;56948.66;5097305;28;20028;-78
2023/03/04 08:32:05;;;;;;;12.50;2.40;;;6.70;99.90;;;-144.05;60.13;56948.66;5096761;28;20035;-80
2023/03/04 08:34:30;;;;;;;9.90;1.95;;;6.40;99.90;;;-144.05;59.79;56910.44;5096289;28;20028;-79
2023/03/04 08:36:56;;;;;;;7.68;2.30;;;6.30;99.90;;;-144.05;59.94;56950.78;5078957;28;20446;-77
2023/03/04 08:39:22;;;;;;;9.80;2.65;;;6.20;99.90;;;-144.05;60.26;56963.53;5097619;28;20470;-79
2023/03/04 08:41:49;;;;;;;7.57;2.22;;;6.20;99.90;;;-144.05;60.38;56944.41;5078685;28;20047;-79
2023/03/04 08:44:15;;;;;;;7.93;2.20;;;6.20;99.90;;;-144.05;60.38;56950.78;5095072;28;20032;-78
2023/03/04 08:46:42;;;;;;;9.48;2.60;;;6.30;99.90;;;-144.05;59.50;56927.41;5099647;28;20039;-78
2023/03/04 08:49:11;;;;;;;10.68;2.40;;;6.50;99.90;;;-144.05;59.02;56938.03;5095497;28;20043;-79
2023/03/04 08:51:37;;;;;;;11.82;2.78;;;6.40;99.90;;;-144.05;59.44;56933.78;5080616;28;20088;-80
2023/03/04 08:54:05;;;;;;;9.13;2.25;;;6.30;99.90;;;-144.05;59.62;56929.53;5079294;28;20032;-78
2023/03/04 08:56:31;;;;;;;8.35;2.60;;;6.30;99.90;;;-144.05;59.86;56933.78;5079935;28;20075;-80
2023/03/04 08:58:58;;;;;;;11.75;2.45;;;6.40;99.90;;;-144.05;58.75;56950.78;5081755;28;20035;-79
2023/03/04 09:01:24;;;;;;;11.60;2.47;;;6.40;99.90;;;-144.05;59.02;56942.28;5097623;28;20024;-79
2023/03/04 09:03:50;;;;;;;7.93;2.28;;;6.50;99.90;;;-144.05;59.03;56925.28;5081556;28;20035;-80
2023/03/04 09:06:17;;;;;;;8.82;3.00;;;6.40;99.90;;;-144.05;59.74;56933.78;5098534;28;20066;-79
2023/03/04 09:08:44;;;;;;;12.55;3.75;;;6.30;99.90;;;-144.05;60.01;56959.28;5079822;28;20531;-79
2023/03/04 09:11:11;;;;;;;13.75;4.90;;;6.20;99.90;;;-144.05;60.81;56938.03;5098574;28;20047;-80
2023/03/04 09:13:37;;;;;;;15.75;4.30;;;6.20;99.90;;;-144.05;60.97;56910.44;5099149;28;20078;-78
2023/03/04 09:16:13;;;;;;;22.45;6.63;;;6.30;99.90;;;-144.05;60.80;56942.28;5098694;28;20035;-81
2023/03/04 09:18:41;;;;;;;17.95;5.05;;;6.30;99.90;;;-144.05;60.70;56948.66;5097522;28;20028;-79
2023/03/04 09:21:08;;;;;;;19.23;5.60;;;6.30;99.90;;;-144.05;61.33;56982.66;5098620;28;20507;-79
2023/03/04 09:23:35;;;;;;;13.63;5.88;;;6.10;99.90;;;-144.05;61.86;56946.53;5081375;28;20095;-81
2023/03/04 09:26:19;;;;;;;10.65;4.03;;;6.20;99.90;;;-144.05;61.99;56955.03;5099641;28;20047;-80
2023/03/04 09:28:50;;;;;;;12.27;4.30;;;6.00;99.90;;;-144.05;62.86;56963.53;5099058;28;20028;-79
2023/03/04 09:31:16;;;;;;;10.60;3.05;;;6.00;99.90;;;-144.05;63.16;56931.66;5098741;28;20050;-78
2023/03/04 09:33:42;;;;;;;7.53;2.67;;;6.10;99.90;;;-144.05;63.61;56950.78;5097467;28;20482;-78
2023/03/04 09:36:14;;;;;;;10.52;2.95;;;6.00;99.90;;;-144.05;63.75;56952.91;5097427;28;20077;-79
2023/03/04 09:38:42;;;;;;;6.55;2.67;;;5.90;99.90;;;-144.05;63.53;56938.03;5096758;28;20028;-80
2023/03/04 09:41:17;;;;;;;8.20;3.78;;;5.90;99.90;;;-144.05;64.02;56946.53;5097400;28;20031;-79
2023/03/04 09:43:45;;;;;;;83.60;30.52;;;6.00;99.90;;;-144.05;65.30;56948.66;5097680;28;20481;-79
2023/03/04 09:46:23;;;;;;;35.97;16.17;;;6.00;99.90;;;-144.05;66.34;56950.78;5096053;28;20044;-80
2023/03/04 09:48:54;;;;;;;209.85;78.10;;;6.00;99.90;;;-144.05;67.27;56927.41;5097396;28;20172;-79
2023/03/04 09:52:13;;;;;;;47.20;19.35;;;6.00;99.90;;;-144.05;67.94;56948.66;5097093;28;20073;-81
2023/03/04 09:55:17;;;;;;;111.78;47.28;;;5.90;99.90;;;-144.05;68.90;56944.41;5098411;28;20071;-80
2023/03/04 09:57:51;;;;;;;97.00;36.00;;;5.90;99.90;;;-144.05;69.23;56935.91;5082735;28;20035;-81
2023/03/04 10:00:44;;;;;;;48.85;18.33;;;5.80;99.90;;;-144.05;71.94;56961.41;5084326;28;20104;-79
2023/03/04 10:03:21;;;;;;;46.33;17.02;;;5.70;99.90;;;-144.05;72.88;56931.66;5080812;28;20038;-79
2023/03/04 10:06:01;;;;;;;59.10;23.85;;;5.70;99.90;;;-144.05;72.83;56938.03;5096675;28;20095;-79
2023/03/04 10:09:00;;;;;;;92.25;33.45;;;5.60;99.90;;;-144.05;72.59;56965.66;5105431;28;20056;-80
2023/03/04 10:11:45;;;;;;;29.45;9.85;;;5.80;99.90;;;-144.05;71.67;56935.91;5084084;28;20517;-79